Time;durP1;ratioP1;P1;durP2;ratioP2;P2;SDS_P1;SDS_P2;PMS_P1;PMS_P2;Temp;Humidity;BMP_temperature;BMP_pressure;BME280_temperature;BME280_humidity;BME280_pressure;Samples;Min_cycle;Max_cycle;Signal;HPM_P1;HPM_P2
2022/03/16 00:00:14;;;;;;;28.65;14.70;;;;;;;8.26;61.56;102497.34;4949657;28;20042;-74
2022/03/16 00:02:40;;;;;;;29.73;14.38;;;;;;;8.25;61.93;102508.19;4942201;29;20033;-74
2022/03/16 00:05:06;;;;;;;30.90;14.98;;;;;;;8.23;61.50;102507.56;4947012;28;20035;-74
2022/03/16 00:07:31;;;;;;;31.17;15.32;;;;;;;8.21;61.47;102514.94;4949275;28;20038;-74
2022/03/16 00:09:57;;;;;;;26.30;14.38;;;;;;;8.19;61.69;102507.94;4953582;28;20098;-74
2022/03/16 00:12:22;;;;;;;31.40;16.20;;;;;;;8.16;61.51;102507.50;4959189;28;20605;-74
2022/03/16 00:14:48;;;;;;;31.77;15.48;;;;;;;8.14;61.97;102513.03;4948261;28;20019;-74
2022/03/16 00:17:14;;;;;;;31.88;14.60;;;;;;;8.10;61.84;102510.94;4948739;28;20063;-74
2022/03/16 00:19:40;;;;;;;34.38;15.65;;;;;;;8.07;61.62;102513.94;4944465;28;20037;-74
2022/03/16 00:22:07;;;;;;;27.98;15.27;;;;;;;8.06;61.89;102513.13;4947571;28;20535;-74
2022/03/16 00:24:33;;;;;;;29.92;14.90;;;;;;;8.04;62.01;102507.16;4946551;28;20448;-74
2022/03/16 00:26:59;;;;;;;28.75;14.63;;;;;;;8.01;61.94;102512.03;4946961;28;20093;-74
2022/03/16 00:29:24;;;;;;;33.30;15.38;;;;;;;7.98;62.01;102513.25;4949547;28;20078;-74
2022/03/16 00:31:50;;;;;;;28.58;14.40;;;;;;;7.96;61.79;102528.63;4944635;28;20035;-74
2022/03/16 00:34:16;;;;;;;27.90;14.32;;;;;;;7.95;62.09;102521.63;4946945;28;20030;-74
2022/03/16 00:36:41;;;;;;;33.80;15.18;;;;;;;7.93;61.92;102529.00;4947412;28;20401;-74
2022/03/16 00:39:07;;;;;;;31.17;16.00;;;;;;;7.87;62.22;102529.72;4944422;28;20053;-74
2022/03/16 00:41:35;;;;;;;32.20;16.33;;;;;;;7.79;62.42;102538.69;4949375;28;20605;-74
2022/03/16 00:44:00;;;;;;;34.60;15.88;;;;;;;7.73;62.74;102541.28;4944684;28;20094;-74
2022/03/16 00:46:26;;;;;;;35.85;17.92;;;;;;;7.68;63.18;102540.97;4949575;28;20119;-74
2022/03/16 00:48:51;;;;;;;33.80;15.90;;;;;;;7.67;63.21;102555.34;4944940;28;20066;-74
2022/03/16 00:51:17;;;;;;;34.60;17.08;;;;;;;7.65;63.29;102565.38;4953680;28;20035;-74
2022/03/16 00:53:45;;;;;;;33.63;17.00;;;;;;;7.60;63.38;102565.09;4945371;28;20027;-74
2022/03/16 00:56:11;;;;;;;32.08;17.15;;;;;;;7.57;63.36;102560.97;4944137;28;20037;-74
2022/03/16 00:58:37;;;;;;;39.15;17.98;;;;;;;7.55;63.60;102574.50;4948857;28;20023;-73
2022/03/16 01:01:05;;;;;;;32.35;16.58;;;;;;;7.54;63.67;102578.16;4948798;28;20371;-73
2022/03/16 01:03:31;;;;;;;41.88;17.95;;;;;;;7.51;63.75;102580.34;4943326;28;20030;-73
2022/03/16 01:05:56;;;;;;;39.45;18.80;;;;;;;7.43;63.75;102575.94;4942028;28;20189;-73
2022/03/16 01:08:22;;;;;;;39.92;18.90;;;;;;;7.32;64.07;102589.72;4946458;28;20066;-73
2022/03/16 01:10:48;;;;;;;40.72;20.13;;;;;;;7.26;64.72;102587.78;4951690;28;20031;-73
2022/03/16 01:13:13;;;;;;;40.15;20.00;;;;;;;7.22;64.55;102583.81;4938767;28;20036;-73
2022/03/16 01:15:39;;;;;;;44.85;20.90;;;;;;;7.18;64.75;102582.50;4946442;28;20023;-73
2022/03/16 01:18:04;;;;;;;36.53;19.15;;;;;;;7.13;65.13;102590.22;4947942;28;20049;-73
2022/03/16 01:20:30;;;;;;;36.72;20.10;;;;;;;7.09;64.99;102588.94;4948626;28;20029;-73
2022/03/16 01:22:56;;;;;;;36.90;19.10;;;;;;;7.06;65.29;102584.78;4950861;28;20119;-73
2022/03/16 01:25:22;;;;;;;36.90;19.20;;;;;;;7.05;64.95;102574.31;4944572;28;20030;-73
2022/03/16 01:27:47;;;;;;;40.53;19.08;;;;;;;7.05;65.14;102576.97;4937315;28;20027;-73
2022/03/16 01:30:13;;;;;;;39.00;20.13;;;;;;;7.02;65.10;102583.50;4950308;28;20031;-73
2022/03/16 01:32:40;;;;;;;40.30;19.27;;;;;;;7.02;64.99;102585.34;4948931;28;20113;-73
2022/03/16 01:35:06;;;;;;;35.75;17.50;;;;;;;6.98;65.10;102584.84;4942976;28;20023;-73
2022/03/16 01:37:32;;;;;;;33.80;18.60;;;;;;;6.95;65.15;102586.03;4947689;28;20031;-73
2022/03/16 01:39:58;;;;;;;34.28;18.33;;;;;;;6.96;65.08;102584.19;4945738;28;20386;-73
2022/03/16 01:42:23;;;;;;;34.30;17.52;;;;;;;6.97;65.21;102583.19;4945420;28;20675;-73
2022/03/16 01:44:51;;;;;;;33.92;16.83;;;;;;;6.99;64.90;102591.84;4950506;28;20023;-73
2022/03/16 01:47:22;;;;;;;39.08;17.52;;;;;;;7.01;64.17;102581.84;4939368;28;20514;-73
2022/03/16 01:49:48;;;;;;;32.78;17.95;;;;;;;7.01;64.38;102583.69;4945506;28;20027;-73
2022/03/16 01:52:18;;;;;;;33.30;17.88;;;;;;;6.99;64.34;102581.16;4944466;28;20074;-73
2022/03/16 01:54:43;;;;;;;34.80;17.38;;;;;;;6.97;64.34;102578.69;4944262;28;20023;-73
2022/03/16 01:57:10;;;;;;;36.22;17.27;;;;;;;6.95;64.38;102572.72;4953626;28;20045;-73
2022/03/16 01:59:36;;;;;;;35.60;18.15;;;;;;;6.94;64.13;102576.38;4951230;28;20649;-73
2022/03/16 02:02:04;;;;;;;37.60;18.20;;;;;;;6.89;64.16;102578.78;4950104;28;20532;-73
2022/03/16 02:04:30;;;;;;;38.63;19.17;;;;;;;6.87;64.24;102580.78;4947169;28;20035;-73
2022/03/16 02:06:56;;;;;;;39.35;19.27;;;;;;;6.86;64.51;102584.47;4949184;28;20031;-73
2022/03/16 02:09:22;;;;;;;38.25;18.10;;;;;;;6.84;64.60;102594.47;4941877;28;20019;-73
2022/03/16 02:11:48;;;;;;;41.53;18.83;;;;;;;6.80;64.74;102589.66;4943460;28;20743;-73
2022/03/16 02:14:13;;;;;;;39.60;18.95;;;;;;;6.74;64.73;102591.22;4946571;28;20110;-73
2022/03/16 02:16:39;;;;;;;39.38;18.90;;;;;;;6.71;64.40;102594.22;4947444;28;20054;-73
2022/03/16 02:19:04;;;;;;;37.47;18.90;;;;;;;6.71;64.77;102594.22;4942597;28;20055;-73
2022/03/16 02:21:37;;;;;;;39.33;18.83;;;;;;;6.59;65.50;102595.63;4946593;28;20110;-73
2022/03/16 02:24:04;;;;;;;40.92;19.63;;;;;;;6.52;65.34;102592.03;4950971;28;20041;-73
2022/03/16 02:26:30;;;;;;;38.63;19.48;;;;;;;6.51;65.47;102603.69;4953937;28;20107;-73
2022/03/16 02:28:57;;;;;;;34.38;17.58;;;;;;;6.45;65.61;102602.53;4953725;28;20263;-73
2022/03/16 02:31:22;;;;;;;35.97;18.13;;;;;;;6.46;65.87;102603.34;4956140;28;20033;-73
2022/03/16 02:33:48;;;;;;;37.53;17.20;;;;;;;6.44;65.64;102608.88;4952789;28;20023;-73
2022/03/16 02:36:13;;;;;;;38.90;17.90;;;;;;;6.45;65.56;102613.19;4947719;28;20027;-73
2022/03/16 02:38:39;;;;;;;33.28;16.58;;;;;;;6.46;65.33;102616.69;4947883;28;20027;-73
2022/03/16 02:41:05;;;;;;;36.20;18.17;;;;;;;6.47;64.92;102621.03;4951351;28;20369;-73
2022/03/16 02:43:30;;;;;;;32.55;17.30;;;;;;;6.48;64.87;102617.34;4950605;28;20465;-73
2022/03/16 02:45:56;;;;;;;33.42;16.85;;;;;;;6.49;65.01;102625.16;4952320;28;20039;-74
2022/03/16 02:48:21;;;;;;;34.83;16.65;;;;;;;6.48;65.05;102628.00;4951530;28;20033;-73
2022/03/16 02:50:48;;;;;;;35.05;16.65;;;;;;;6.45;65.13;102634.50;4948032;28;20777;-74
2022/03/16 02:53:15;;;;;;;33.13;17.70;;;;;;;6.44;65.13;102638.16;4945828;28;20035;-74
2022/03/16 02:55:41;;;;;;;36.92;16.80;;;;;;;6.43;65.18;102638.34;4947410;28;20030;-74
2022/03/16 02:58:07;;;;;;;39.67;19.38;;;;;;;6.44;65.15;102640.81;4950478;28;20034;-74
2022/03/16 03:00:33;;;;;;;39.13;16.92;;;;;;;6.45;64.96;102646.97;4949698;28;20031;-74
2022/03/16 03:02:59;;;;;;;37.13;17.45;;;;;;;6.44;65.49;102642.66;4949838;28;20102;-74
2022/03/16 03:05:25;;;;;;;39.10;18.38;;;;;;;6.41;65.62;102648.34;4948738;28;20515;-74
2022/03/16 03:07:51;;;;;;;38.65;18.50;;;;;;;6.42;65.56;102653.47;4949489;28;20039;-74
2022/03/16 03:10:17;;;;;;;42.13;20.60;;;;;;;6.41;65.64;102662.47;4947109;28;20058;-74
2022/03/16 03:12:42;;;;;;;39.28;18.73;;;;;;;6.33;65.93;102667.84;4951671;28;20052;-74
2022/03/16 03:15:13;;;;;;;39.35;19.73;;;;;;;6.23;66.69;102669.88;4956596;28;20023;-74
2022/03/16 03:17:39;;;;;;;32.88;16.52;;;;;;;6.18;67.01;102677.56;4951281;28;20059;-73
2022/03/16 03:20:06;;;;;;;40.05;18.27;;;;;;;6.12;67.19;102686.22;4949100;28;20035;-74
2022/03/16 03:22:32;;;;;;;37.17;16.65;;;;;;;6.12;67.27;102686.22;4950384;28;20079;-74
2022/03/16 03:24:58;;;;;;;35.72;17.48;;;;;;;6.10;67.35;102697.03;4944592;28;20074;-74
2022/03/16 03:27:24;;;;;;;35.15;18.05;;;;;;;6.09;67.66;102692.69;4950495;28;20035;-74
2022/03/16 03:29:49;;;;;;;34.97;16.73;;;;;;;6.08;67.75;102696.38;4956417;28;20023;-74
2022/03/16 03:32:15;;;;;;;32.00;16.20;;;;;;;6.05;67.90;102700.19;4950706;28;20037;-73
2022/03/16 03:34:46;;;;;;;33.03;15.35;;;;;;;6.07;67.81;102700.03;4942789;28;20042;-74
2022/03/16 03:37:13;;;;;;;31.88;15.70;;;;;;;6.06;67.90;102691.22;4950599;28;20030;-74
2022/03/16 03:39:39;;;;;;;30.63;14.95;;;;;;;6.03;67.96;102704.03;4947244;28;20028;-74
2022/03/16 03:42:05;;;;;;;32.15;14.55;;;;;;;6.01;68.45;102706.03;4946999;28;20089;-74
2022/03/16 03:44:31;;;;;;;32.22;14.57;;;;;;;6.02;68.05;102711.19;4947710;28;20024;-74
2022/03/16 03:46:57;;;;;;;29.27;14.25;;;;;;;5.98;68.62;102717.84;4947642;28;20046;-74
2022/03/16 03:49:22;;;;;;;27.48;14.55;;;;;;;5.95;68.41;102723.53;4945238;28;20023;-74
2022/03/16 03:51:48;;;;;;;28.73;14.23;;;;;;;5.94;68.55;102731.69;4950023;28;20030;-74
2022/03/16 03:54:13;;;;;;;30.88;15.52;;;;;;;5.89;68.81;102733.97;4945930;28;20106;-74
2022/03/16 03:56:39;;;;;;;29.50;13.88;;;;;;;5.87;68.83;102736.78;4943823;28;20026;-73
2022/03/16 03:59:04;;;;;;;31.30;14.25;;;;;;;5.88;69.21;102746.44;4945678;28;20034;-74
2022/03/16 04:01:30;;;;;;;35.05;14.05;;;;;;;5.91;69.29;102745.28;4950458;28;20485;-74
2022/03/16 04:03:56;;;;;;;30.60;14.05;;;;;;;5.95;69.00;102757.28;4946577;28;20410;-73
2022/03/16 04:06:21;;;;;;;26.85;13.95;;;;;;;5.97;68.72;102756.13;4949534;28;21029;-73
2022/03/16 04:08:47;;;;;;;31.40;14.50;;;;;;;5.99;69.05;102754.09;4951322;28;20528;-73
2022/03/16 04:11:12;;;;;;;27.70;13.93;;;;;;;5.96;69.12;102754.44;4950368;28;20034;-73
2022/03/16 04:13:38;;;;;;;27.85;13.95;;;;;;;5.96;68.96;102759.78;4947420;28;20452;-73
2022/03/16 04:16:04;;;;;;;27.45;12.98;;;;;;;5.98;69.10;102760.44;4951685;28;20045;-73
2022/03/16 04:18:29;;;;;;;24.95;12.68;;;;;;;5.96;69.30;102772.25;4947851;28;20030;-73
2022/03/16 04:20:55;;;;;;;24.00;12.80;;;;;;;5.96;69.33;102777.56;4949480;28;20778;-73
2022/03/16 04:23:21;;;;;;;29.13;12.77;;;;;;;5.98;69.34;102778.22;4950682;28;21712;-73
2022/03/16 04:25:47;;;;;;;29.05;13.27;;;;;;;6.00;69.34;102776.22;4955347;28;20027;-73
2022/03/16 04:28:12;;;;;;;29.83;14.13;;;;;;;6.01;69.25;102776.06;4944824;28;20099;-73
2022/03/16 04:30:38;;;;;;;27.08;12.93;;;;;;;6.00;69.45;102785.03;4944597;28;20565;-73
2022/03/16 04:33:04;;;;;;;30.27;14.05;;;;;;;5.98;69.65;102783.56;4945417;28;20102;-72
2022/03/16 04:35:29;;;;;;;24.40;12.48;;;;;;;5.95;69.80;102783.91;4944518;28;21670;-72
2022/03/16 04:37:55;;;;;;;28.25;13.90;;;;;;;5.91;70.16;102790.53;4947352;28;20039;-72
2022/03/16 04:40:21;;;;;;;26.10;12.65;;;;;;;5.92;70.19;102790.34;4946391;28;20167;-72
2022/03/16 04:42:46;;;;;;;29.75;13.43;;;;;;;5.96;70.10;102804.19;4941917;28;20031;-72
2022/03/16 04:45:12;;;;;;;25.23;12.13;;;;;;;5.99;70.39;102806.50;4940765;28;20019;-72
2022/03/16 04:47:38;;;;;;;25.27;11.93;;;;;;;5.98;70.30;102810.16;4945624;28;20031;-71
2022/03/16 04:50:04;;;;;;;27.35;11.85;;;;;;;5.95;70.69;102818.47;4946411;28;20037;-72
2022/03/16 04:52:31;;;;;;;25.08;12.20;;;;;;;5.92;70.54;102810.81;4946633;28;20042;-72
2022/03/16 04:54:56;;;;;;;23.42;12.30;;;;;;;5.95;70.87;102816.66;4947114;28;20598;-72
2022/03/16 04:57:22;;;;;;;24.50;10.75;;;;;;;5.98;70.58;102815.47;4946660;28;20038;-72
2022/03/16 04:59:47;;;;;;;23.48;10.88;;;;;;;5.97;70.86;102822.63;4946377;28;20381;-72
2022/03/16 05:02:13;;;;;;;18.52;10.40;;;;;;;5.93;71.07;102817.81;4941882;28;20028;-72
2022/03/16 05:04:38;;;;;;;22.17;9.45;;;;;;;5.90;71.43;102815.47;4940797;28;20031;-71
2022/03/16 05:07:04;;;;;;;18.27;9.23;;;;;;;5.87;71.50;102821.09;4944024;28;20027;-72
2022/03/16 05:09:30;;;;;;;18.17;9.25;;;;;;;5.85;71.81;102823.91;4945399;28;20151;-72
2022/03/16 05:11:55;;;;;;;20.00;9.23;;;;;;;5.82;71.87;102829.59;4946854;28;20027;-72
2022/03/16 05:14:21;;;;;;;17.00;9.13;;;;;;;5.80;71.80;102836.06;4945958;28;20023;-72
2022/03/16 05:16:46;;;;;;;18.38;8.00;;;;;;;5.81;71.81;102837.72;4943700;28;20057;-72
2022/03/16 05:19:12;;;;;;;15.55;8.25;;;;;;;5.84;72.04;102842.72;4942304;28;20371;-72
2022/03/16 05:21:38;;;;;;;19.50;9.02;;;;;;;5.86;71.74;102852.19;4946117;28;20031;-72
2022/03/16 05:24:04;;;;;;;13.82;7.88;;;;;;;5.88;71.85;102852.84;4939650;28;20460;-72
2022/03/16 05:26:29;;;;;;;14.10;7.70;;;;;;;5.91;71.46;102852.53;4943362;28;20039;-72
2022/03/16 05:28:56;;;;;;;17.65;8.55;;;;;;;5.93;71.37;102860.38;4944813;28;20035;-72
2022/03/16 05:31:22;;;;;;;16.73;9.32;;;;;;;5.94;71.56;102864.72;4944795;28;20031;-73
2022/03/16 05:33:48;;;;;;;16.25;8.82;;;;;;;5.94;71.51;102867.38;4941760;28;21776;-72
2022/03/16 05:36:14;;;;;;;19.20;9.55;;;;;;;5.91;71.67;102870.34;4943989;28;20522;-72
2022/03/16 05:38:40;;;;;;;23.30;10.02;;;;;;;5.89;72.03;102872.31;4943462;28;20027;-73
2022/03/16 05:41:05;;;;;;;22.08;9.98;;;;;;;5.90;72.12;102879.31;4945538;28;20034;-72
2022/03/16 05:43:31;;;;;;;22.08;10.32;;;;;;;5.90;71.83;102881.97;4940602;28;20027;-72
2022/03/16 05:45:57;;;;;;;22.15;10.07;;;;;;;5.93;71.82;102894.97;4941283;28;20038;-72
2022/03/16 05:48:22;;;;;;;23.70;10.13;;;;;;;5.94;71.71;102902.78;4944841;28;20039;-72
2022/03/16 05:50:48;;;;;;;20.40;10.10;;;;;;;5.94;72.02;102901.97;4945109;28;20498;-72
2022/03/16 05:53:14;;;;;;;22.17;11.15;;;;;;;5.96;71.93;102897.31;4942771;28;20059;-71
2022/03/16 05:55:41;;;;;;;24.70;10.93;;;;;;;5.98;71.68;102903.28;4942376;28;20535;-72
2022/03/16 05:58:06;;;;;;;28.50;12.35;;;;;;;6.01;71.96;102905.63;4942400;28;20035;-72
2022/03/16 06:00:32;;;;;;;30.10;12.45;;;;;;;6.02;71.66;102909.94;4949223;28;20035;-72
2022/03/16 06:02:57;;;;;;;23.73;11.35;;;;;;;6.03;71.87;102914.25;4945746;28;20557;-72
2022/03/16 06:05:23;;;;;;;28.50;12.23;;;;;;;6.05;71.91;102909.59;4949567;28;20025;-72
2022/03/16 06:07:49;;;;;;;28.33;11.38;;;;;;;6.06;71.68;102912.09;4951552;28;20110;-72
2022/03/16 06:10:17;;;;;;;31.67;12.77;;;;;;;6.08;71.72;102919.91;4950394;28;20106;-72
2022/03/16 06:13:08;;;;;;;27.48;13.52;;;;;;;6.02;72.40;102912.59;4946662;28;20086;-73
2022/03/16 06:15:42;;;;;;;31.33;12.80;;;;;;;6.09;71.98;102913.59;4942083;28;20043;-72
2022/03/16 06:18:08;;;;;;;34.92;13.65;;;;;;;6.12;71.85;102920.44;4946900;28;20508;-72
2022/03/16 06:20:35;;;;;;;31.92;13.30;;;;;;;6.11;71.75;102919.59;4949052;28;20861;-72
2022/03/16 06:23:01;;;;;;;32.92;13.55;;;;;;;6.12;72.41;102923.09;4946368;28;20118;-73
2022/03/16 06:25:27;;;;;;;37.83;14.57;;;;;;;6.11;72.25;102935.56;4948971;28;20162;-72
2022/03/16 06:27:53;;;;;;;38.50;14.98;;;;;;;6.10;72.28;102933.88;4951183;28;20085;-72
2022/03/16 06:30:20;;;;;;;46.30;16.60;;;;;;;6.09;72.42;102937.53;4949220;28;20045;-72
2022/03/16 06:32:47;;;;;;;46.38;16.80;;;;;;;6.10;72.67;102941.88;4945670;28;20034;-72
2022/03/16 06:35:15;;;;;;;44.13;16.75;;;;;;;6.11;72.67;102945.41;4939585;28;20020;-72
2022/03/16 06:37:41;;;;;;;47.25;17.77;;;;;;;6.11;72.77;102940.91;4950313;28;20035;-73
2022/03/16 06:40:07;;;;;;;42.88;18.02;;;;;;;6.11;73.03;102937.41;4955217;28;20035;-72
2022/03/16 06:42:33;;;;;;;46.63;16.90;;;;;;;6.11;73.22;102940.06;4950266;28;20031;-72
2022/03/16 06:44:59;;;;;;;50.40;16.35;;;;;;;6.12;73.24;102942.56;4943474;28;20389;-73
2022/03/16 06:47:24;;;;;;;48.38;17.73;;;;;;;6.13;73.46;102936.25;4945774;28;20130;-72
2022/03/16 06:49:50;;;;;;;42.92;15.75;;;;;;;6.13;73.60;102941.56;4952402;28;20023;-73
2022/03/16 06:52:16;;;;;;;37.53;15.18;;;;;;;6.15;73.77;102942.22;4944213;28;20030;-72
2022/03/16 06:54:41;;;;;;;49.88;16.88;;;;;;;6.17;73.72;102940.22;4950273;28;20492;-72
2022/03/16 06:57:07;;;;;;;41.28;15.20;;;;;;;6.19;73.84;102948.06;4948627;28;20094;-72
2022/03/16 06:59:32;;;;;;;50.55;16.40;;;;;;;6.20;73.76;102950.53;4947588;28;20038;-72
2022/03/16 07:01:58;;;;;;;39.20;15.02;;;;;;;6.21;74.00;102949.53;4942509;28;20062;-72
2022/03/16 07:04:23;;;;;;;40.60;16.02;;;;;;;6.23;74.22;102949.38;4948418;28;20030;-72
2022/03/16 07:06:50;;;;;;;47.88;17.05;;;;;;;6.24;74.43;102954.53;4945639;28;20038;-72
2022/03/16 07:09:16;;;;;;;43.30;16.25;;;;;;;6.24;74.38;102946.53;4945654;28;20041;-72
2022/03/16 07:11:41;;;;;;;45.17;15.30;;;;;;;6.26;74.27;102949.03;4946865;28;20028;-72
2022/03/16 07:16:51;;;;;;;45.07;15.43;;;;;;;6.30;74.29;102953.06;4945544;28;20110;-72
2022/03/16 07:19:16;;;;;;;46.15;15.82;;;;;;;6.31;74.37;102950.22;4949174;28;20051;-72
2022/03/16 07:21:42;;;;;;;44.42;16.42;;;;;;;6.33;74.38;102944.72;4947529;28;20042;-72
2022/03/16 07:24:08;;;;;;;45.60;17.75;;;;;;;6.34;74.37;102943.72;4948528;28;20042;-72
2022/03/16 07:26:34;;;;;;;42.30;15.75;;;;;;;6.35;74.33;102943.56;4949039;28;20049;-72
2022/03/16 07:28:59;;;;;;;44.22;17.02;;;;;;;6.38;74.37;102937.06;4945049;28;20058;-72
2022/03/16 07:31:25;;;;;;;44.28;17.25;;;;;;;6.39;74.61;102944.06;4942655;28;20913;-72
2022/03/16 07:33:50;;;;;;;40.60;16.35;;;;;;;6.43;74.64;102949.88;4945452;28;20053;-72
2022/03/16 07:36:16;;;;;;;40.42;14.27;;;;;;;6.45;74.31;102956.69;4947583;28;20027;-72
2022/03/16 07:38:42;;;;;;;36.60;15.07;;;;;;;6.48;74.48;102952.88;4948174;28;20038;-73
2022/03/16 07:41:07;;;;;;;44.72;15.02;;;;;;;6.48;74.56;102948.41;4947628;28;20031;-72
2022/03/16 07:43:33;;;;;;;37.83;15.07;;;;;;;6.50;74.73;102951.72;4945601;28;20026;-71
2022/03/16 07:45:58;;;;;;;42.80;14.80;;;;;;;6.52;74.42;102947.06;4941589;28;20497;-72
2022/03/16 07:48:24;;;;;;;40.08;13.93;;;;;;;6.55;74.65;102956.53;4947508;28;20065;-72
2022/03/16 07:50:50;;;;;;;35.72;14.65;;;;;;;6.58;74.57;102953.53;4946936;28;20058;-72
2022/03/16 07:53:19;;;;;;;39.40;15.30;;;;;;;6.60;74.53;102962.19;4949667;28;20154;-72
2022/03/16 07:55:49;;;;;;;38.17;15.73;;;;;;;6.62;74.60;102958.34;4945927;28;21241;-73
2022/03/16 07:58:15;;;;;;;45.40;15.60;;;;;;;6.66;74.60;102964.19;4949418;28;20592;-72
2022/03/16 08:00:40;;;;;;;41.40;15.48;;;;;;;6.66;74.84;102956.22;4950943;28;20042;-72
2022/03/16 08:03:06;;;;;;;36.67;15.40;;;;;;;6.67;74.72;102973.84;4944706;28;20428;-71
2022/03/16 08:05:32;;;;;;;31.80;13.25;;;;;;;6.69;74.65;102968.34;4949428;28;20016;-72
2022/03/16 08:07:58;;;;;;;37.30;14.55;;;;;;;6.71;74.42;102958.38;4950320;28;20034;-72
2022/03/16 08:10:24;;;;;;;34.15;14.43;;;;;;;6.73;74.45;102962.50;4944941;28;20035;-72
2022/03/16 08:12:50;;;;;;;34.90;14.70;;;;;;;6.75;74.43;102967.66;4949672;28;20030;-72
2022/03/16 08:15:16;;;;;;;38.42;14.23;;;;;;;6.77;74.93;102963.84;4947114;28;20035;-72
2022/03/16 08:17:41;;;;;;;38.35;14.38;;;;;;;6.78;74.82;102964.66;4952576;28;20023;-71
2022/03/16 08:20:07;;;;;;;36.17;15.25;;;;;;;6.79;74.38;102964.50;4943498;28;20041;-72
2022/03/16 08:22:35;;;;;;;34.80;13.98;;;;;;;6.83;74.77;102971.19;4941748;28;20047;-72
2022/03/16 08:25:03;;;;;;;32.88;13.20;;;;;;;6.85;74.31;102968.34;4944576;28;20034;-71
2022/03/16 08:27:29;;;;;;;35.92;13.73;;;;;;;6.87;74.58;102966.34;4946989;28;20047;-71
2022/03/16 08:29:55;;;;;;;32.25;13.60;;;;;;;6.90;74.32;102966.00;4939323;28;20051;-72
2022/03/16 08:32:22;;;;;;;36.25;14.75;;;;;;;6.91;74.37;102967.66;4946235;28;20033;-71
2022/03/16 08:34:47;;;;;;;32.55;15.20;;;;;;;6.94;74.24;102969.97;4946331;28;20023;-72
2022/03/16 08:37:13;;;;;;;35.47;16.13;;;;;;;6.96;74.17;102974.13;4942403;28;20585;-72
2022/03/16 08:39:40;;;;;;;39.53;16.38;;;;;;;7.00;73.75;102979.13;4942147;28;20141;-72
2022/03/16 08:42:07;;;;;;;35.72;15.50;;;;;;;7.01;73.77;102978.13;4940074;28;20095;-72
2022/03/16 08:44:34;;;;;;;36.53;16.38;;;;;;;7.04;73.80;102975.13;4942928;28;20568;-72
2022/03/16 08:47:00;;;;;;;44.60;18.17;;;;;;;7.07;73.68;102983.63;4942532;28;20504;-72
2022/03/16 08:49:25;;;;;;;44.00;18.83;;;;;;;7.11;73.47;102984.09;4940360;28;20039;-72
2022/03/16 08:51:51;;;;;;;36.85;17.92;;;;;;;7.15;73.36;102982.75;4941382;28;20027;-72
2022/03/16 08:54:17;;;;;;;40.03;17.90;;;;;;;7.17;73.12;102989.56;4944699;28;20032;-72
2022/03/16 08:56:43;;;;;;;39.70;18.45;;;;;;;7.20;73.35;102975.91;4946683;28;20856;-72
2022/03/16 08:59:09;;;;;;;35.08;16.17;;;;;;;7.21;73.34;102977.59;4944204;28;20089;-73
2022/03/16 09:01:35;;;;;;;32.90;15.52;;;;;;;7.24;73.02;102981.75;4956226;28;20664;-72
2022/03/16 09:04:02;;;;;;;31.02;14.65;;;;;;;7.25;73.13;102992.22;4945773;28;20035;-72
2022/03/16 09:06:28;;;;;;;32.80;14.55;;;;;;;7.29;73.23;102990.03;4944279;28;20473;-72
2022/03/16 09:08:53;;;;;;;33.08;14.85;;;;;;;7.32;73.16;102994.19;4937324;28;20031;-72
2022/03/16 09:11:19;;;;;;;29.42;12.80;;;;;;;7.37;72.92;102994.53;4941783;28;20099;-72
2022/03/16 09:13:44;;;;;;;26.92;13.50;;;;;;;7.39;72.84;103004.03;4941941;28;20664;-72
2022/03/16 09:16:10;;;;;;;31.02;13.70;;;;;;;7.43;72.72;102992.00;4945996;28;20057;-72
2022/03/16 09:18:35;;;;;;;27.27;11.43;;;;;;;7.48;72.66;102992.31;4943778;28;20118;-73
2022/03/16 09:23:50;;;;;;;24.20;10.45;;;;;;;7.56;72.33;102997.63;4957887;28;20051;-76
2022/03/16 09:26:15;;;;;;;23.95;11.52;;;;;;;7.58;72.45;103000.94;4962577;28;20034;-76
2022/03/16 09:28:41;;;;;;;25.73;10.85;;;;;;;7.64;72.24;103001.25;4962783;28;20038;-76
2022/03/16 09:31:09;;;;;;;23.27;10.85;;;;;;;7.68;72.02;102994.56;4960416;28;20019;-76
2022/03/16 09:33:34;;;;;;;28.42;11.05;;;;;;;7.73;72.34;103009.06;4958528;28;20097;-76
2022/03/16 09:36:03;;;;;;;22.77;9.80;;;;;;;7.80;72.25;103006.53;4956498;28;20030;-76
2022/03/16 09:38:28;;;;;;;25.92;11.82;;;;;;;7.83;71.91;103014.16;4961111;28;20125;-76
2022/03/16 09:40:57;;;;;;;21.50;9.52;;;;;;;7.90;71.88;103012.47;4964041;28;20454;-75
2022/03/16 09:43:23;;;;;;;24.27;10.15;;;;;;;7.96;71.81;103009.09;4956963;28;20294;-76
2022/03/16 09:46:02;;;;;;;23.13;10.38;;;;;;;7.98;71.73;103017.75;4958952;28;20554;-75
2022/03/16 09:48:29;;;;;;;17.05;9.25;;;;;;;8.04;71.42;103022.38;4958699;28;20031;-75
2022/03/16 09:50:54;;;;;;;21.58;10.48;;;;;;;8.08;71.83;103013.06;4962713;28;20023;-75
2022/03/16 09:53:22;;;;;;;20.33;8.90;;;;;;;8.14;71.42;103023.00;4959682;28;20026;-76
2022/03/16 09:55:49;;;;;;;20.48;10.35;;;;;;;8.17;71.46;103025.31;4963267;28;20282;-75
2022/03/16 09:58:14;;;;;;;20.38;10.15;;;;;;;8.21;71.27;103030.31;4959308;28;20262;-75
2022/03/16 10:00:41;;;;;;;22.27;10.20;;;;;;;8.23;71.08;103025.63;4959574;28;20141;-75
2022/03/16 10:03:06;;;;;;;25.95;11.70;;;;;;;8.24;70.99;103032.63;4958935;28;20041;-75
2022/03/16 10:05:32;;;;;;;23.13;10.65;;;;;;;8.28;70.97;103036.63;4957924;28;20030;-75
2022/03/16 10:08:02;;;;;;;22.38;10.60;;;;;;;8.32;70.85;103036.09;4962907;28;20038;-75
2022/03/16 10:13:23;;;;;;;22.83;10.45;;;;;;;8.36;70.86;103026.72;4962627;28;20065;-75
2022/03/16 10:16:07;;;;;;;24.40;11.32;;;;;;;8.40;70.44;103036.06;4956540;28;20022;-75
2022/03/16 10:18:36;;;;;;;23.35;11.30;;;;;;;8.47;70.43;103028.16;4955884;28;20023;-75
2022/03/16 10:21:03;;;;;;;22.90;10.70;;;;;;;8.54;70.27;103022.94;4959630;28;20514;-75
2022/03/16 10:23:30;;;;;;;27.27;11.93;;;;;;;8.59;69.89;103028.56;4957227;28;20038;-75
2022/03/16 10:25:59;;;;;;;22.90;11.15;;;;;;;8.62;69.69;103023.72;4958342;28;20293;-75
2022/03/16 10:28:25;;;;;;;20.85;10.35;;;;;;;8.66;69.97;103027.69;4959574;28;20100;-75
2022/03/16 10:30:57;;;;;;;20.95;10.75;;;;;;;8.70;69.82;103028.97;4959336;28;20038;-76
2022/03/16 10:33:48;;;;;;;23.40;11.50;;;;;;;8.69;69.81;103031.84;4959256;28;20838;-76
2022/03/16 10:36:26;;;;;;;23.25;12.00;;;;;;;8.77;69.71;103034.44;4956126;28;20043;-76
2022/03/16 10:38:58;;;;;;;24.48;12.00;;;;;;;8.82;69.16;103032.06;4956043;28;20045;-76
2022/03/16 10:47:10;;;;;;;24.63;11.18;;;;;;;8.94;69.08;103051.16;4958742;28;20130;-76
2022/03/16 10:49:38;;;;;;;23.27;11.82;;;;;;;9.03;68.84;103055.44;4964242;28;20568;-76
2022/03/16 10:52:06;;;;;;;21.88;11.02;;;;;;;9.05;68.55;103051.56;4963078;28;20047;-76
2022/03/16 10:54:34;;;;;;;27.83;12.23;;;;;;;9.07;68.66;103057.56;4962874;28;20029;-76
2022/03/16 10:57:02;;;;;;;24.02;12.38;;;;;;;9.11;68.24;103054.50;4964048;28;20030;-76
2022/03/16 10:59:31;;;;;;;23.60;12.77;;;;;;;9.14;68.39;103056.81;4964929;28;20031;-76
2022/03/16 11:02:02;;;;;;;25.33;12.40;;;;;;;9.17;68.26;103059.16;4960180;28;20023;-76
2022/03/16 11:04:33;;;;;;;26.15;11.90;;;;;;;9.19;68.19;103057.13;4958994;28;20388;-76
2022/03/16 11:07:00;;;;;;;22.98;11.90;;;;;;;9.21;68.24;103063.94;4961341;28;20517;-76
2022/03/16 11:09:27;;;;;;;23.17;12.18;;;;;;;9.25;68.10;103067.91;4959409;28;20038;-76
2022/03/16 11:14:38;;;;;;;23.00;12.25;;;;;;;9.33;67.99;103067.81;4963610;28;20414;-76
2022/03/16 11:17:04;;;;;;;22.48;11.95;;;;;;;9.37;67.68;103058.44;4965797;28;20035;-76
2022/03/16 11:19:31;;;;;;;24.25;12.35;;;;;;;9.42;67.65;103071.25;4960020;28;20551;-77
2022/03/16 11:22:13;;;;;;;24.00;13.02;;;;;;;9.38;67.35;103065.44;4960583;28;20018;-76
2022/03/16 11:24:47;;;;;;;22.35;12.52;;;;;;;9.42;67.49;103070.41;4966345;28;20102;-76
2022/03/16 11:27:27;;;;;;;24.02;13.48;;;;;;;9.46;67.40;103067.19;4958227;28;20041;-76
2022/03/16 11:30:33;;;;;;;24.05;12.65;;;;;;;9.44;67.14;103069.22;4962044;28;20508;-76